Terminal Aerodrome Forecast
Issued by NWS Twin Cities, MN

Home | Current Version | Previous Version | Text Only | Print | Product List | Glossary Off
Versions: 1 2 3 4 5 6 7 8 9 10 11 12 13 14 15 16 17 18 19

492
FTUS43 KMPX 192339
TAFSTC
TAF
KSTC 192339Z 2000/2024 13013G20KT P6SM SCT040
     FM200300 15017G25KT P6SM VCTS OVC030CB WS020/16055KT
     FM200600 15014G23KT 6SM -RA BR VCTS OVC030CB
      TEMPO 2006/2010 2SM TSRA BR OVC020CB
     FM201100 20010KT P6SM OVC015
     FM201400 24011KT P6SM BKN050
     FM201800 28013G20KT P6SM SCT130=

USA.gov is the U.S. government's official web portal to all federal, state and local government web resources and services.